Time;durP1;ratioP1;P1;durP2;ratioP2;P2;SDS_P1;SDS_P2;PMS_P1;PMS_P2;Temp;Humidity;BMP_temperature;BMP_pressure;BME280_temperature;BME280_humidity;BME280_pressure;Samples;Min_cycle;Max_cycle;Signal;HPM_P1;HPM_P2
2021/09/13 00:01:08;;;;;;;18.50;9.50;;;;;;;12.80;72.12;98700.73;111140;1203;60839;-22
2021/09/13 00:03:36;;;;;;;22.30;8.70;;;;;;;12.78;71.58;98700.94;111130;1203;74415;-23
2021/09/13 00:06:06;;;;;;;17.90;8.90;;;;;;;12.54;71.67;98701.17;111105;1203;75633;-22
2021/09/13 00:08:55;;;;;;;14.30;8.20;;;;;;;12.19;72.39;98696.07;111025;1203;75457;-22
2021/09/13 00:11:29;;;;;;;21.30;9.50;;;;;;;11.87;72.41;98693.19;111128;1202;60880;-22
2021/09/13 00:14:18;;;;;;;20.60;11.10;;;;;;;11.59;73.37;98698.41;111121;1203;61841;-22
2021/09/13 00:16:50;;;;;;;11.10;6.40;;;;;;;11.39;73.85;98700.38;111130;1203;75048;-22
2021/09/13 00:19:39;;;;;;;16.70;8.70;;;;;;;11.96;73.66;98690.83;111133;1203;77067;-22
2021/09/13 00:22:08;;;;;;;19.20;10.10;;;;;;;12.45;72.49;98687.69;111196;1203;73956;-23
2021/09/13 00:24:57;;;;;;;14.80;8.90;;;;;;;12.43;72.00;98689.86;111076;1202;61877;-22
2021/09/13 00:27:29;;;;;;;21.60;10.10;;;;;;;12.19;72.12;98688.77;111137;1203;60854;-22
2021/09/13 00:30:03;;;;;;;21.70;11.60;;;;;;;11.88;73.00;98687.76;111153;1203;75296;-22
2021/09/13 00:32:31;;;;;;;17.40;9.00;;;;;;;11.60;73.40;98682.30;111103;1203;75556;-24
2021/09/13 00:35:04;;;;;;;16.50;7.30;;;;;;;11.36;74.00;98682.35;111146;1202;74663;-22
2021/09/13 00:37:33;;;;;;;15.00;7.70;;;;;;;11.78;74.08;98679.50;111084;1203;60871;-22
2021/09/13 00:40:11;;;;;;;28.10;13.80;;;;;;;12.29;72.30;98676.98;111104;1203;60790;-22
2021/09/13 00:42:41;;;;;;;17.90;9.30;;;;;;;12.30;72.94;98677.50;110995;1203;75091;-22
2021/09/13 00:45:11;;;;;;;22.70;13.30;;;;;;;11.98;71.86;98679.48;111155;1202;75567;-23
2021/09/13 00:47:39;;;;;;;33.10;18.80;;;;;;;11.65;73.56;98674.20;111046;1203;73145;-22
2021/09/13 00:50:09;;;;;;;41.70;22.90;;;;;;;11.43;75.03;98677.10;111160;1203;61454;-22
2021/09/13 00:52:37;;;;;;;31.10;13.90;;;;;;;11.27;76.14;98675.66;111175;1203;61437;-22
2021/09/13 00:55:06;;;;;;;39.10;18.50;;;;;;;11.73;76.06;98673.14;111149;1202;75150;-22
2021/09/13 00:57:34;;;;;;;43.10;22.10;;;;;;;12.26;74.80;98673.97;111023;1204;74773;-23
2021/09/13 01:00:05;;;;;;;36.70;20.10;;;;;;;12.27;74.17;98673.73;111068;1203;73957;-22
2021/09/13 01:02:40;;;;;;;45.60;20.50;;;;;;;12.06;74.59;98669.23;111051;1203;60970;-22
2021/09/13 01:05:09;;;;;;;37.00;18.20;;;;;;;11.84;74.80;98672.50;111060;1203;60883;-23
2021/09/13 01:07:58;;;;;;;32.70;17.40;;;;;;;11.54;74.92;98673.09;110950;1203;76238;-22
2021/09/13 01:10:28;;;;;;;32.00;13.40;;;;;;;11.29;75.29;98673.66;111136;1196;73157;-23
2021/09/13 01:12:56;;;;;;;25.40;13.10;;;;;;;11.69;74.78;98667.57;110985;1203;74142;-23
2021/09/13 01:15:26;;;;;;;32.50;14.90;;;;;;;12.21;73.42;98665.79;111024;1203;60858;-22
2021/09/13 01:18:15;;;;;;;21.70;11.70;;;;;;;12.15;72.69;98662.00;111100;1203;61648;-22
2021/09/13 01:20:43;;;;;;;29.30;14.70;;;;;;;11.85;72.90;98660.41;111111;1203;74427;-22
2021/09/13 01:23:28;;;;;;;22.50;13.70;;;;;;;11.53;73.10;98667.09;111158;1203;74416;-22
2021/09/13 01:26:07;;;;;;;29.40;15.90;;;;;;;11.20;74.07;98667.60;111075;1203;71784;-22
2021/09/13 01:28:36;;;;;;;21.30;10.20;;;;;;;10.96;74.69;98670.64;111046;1203;62349;-22
2021/09/13 01:31:05;;;;;;;20.50;9.80;;;;;;;11.36;73.74;98670.73;111088;1204;60805;-23
2021/09/13 01:33:37;;;;;;;19.80;11.30;;;;;;;11.85;71.62;98670.46;111113;1203;73185;-23
2021/09/13 01:36:16;;;;;;;17.90;10.00;;;;;;;11.80;70.70;98674.54;111076;1203;75773;-22
2021/09/13 01:38:45;;;;;;;38.20;20.90;;;;;;;11.51;71.86;98672.33;111058;1203;73235;-22
2021/09/13 01:41:13;;;;;;;41.30;20.70;;;;;;;11.24;74.29;98679.30;111016;1203;60947;-22
2021/09/13 01:43:42;;;;;;;41.00;22.40;;;;;;;10.99;76.08;98680.27;111059;1204;60946;-23
2021/09/13 01:46:10;;;;;;;25.60;12.60;;;;;;;10.82;76.50;98677.42;110973;1198;74688;-22
2021/09/13 01:48:45;;;;;;;39.40;18.70;;;;;;;11.36;75.89;98676.65;111036;1196;74600;-22
2021/09/13 01:51:14;;;;;;;26.10;16.10;;;;;;;11.91;73.89;98672.98;111181;1203;74131;-22
2021/09/13 01:53:46;;;;;;;34.10;17.60;;;;;;;11.97;73.15;98676.14;111161;1203;61665;-22
2021/09/13 01:56:16;;;;;;;31.40;17.20;;;;;;;11.78;73.06;98672.29;111129;1203;60832;-22
2021/09/13 01:58:45;;;;;;;28.10;15.60;;;;;;;11.54;73.68;98674.83;111176;1203;72695;-22
2021/09/13 02:01:13;;;;;;;28.70;16.20;;;;;;;11.28;73.05;98678.27;111104;1203;75564;-22
2021/09/13 02:03:43;;;;;;;34.00;18.70;;;;;;;11.01;74.08;98677.34;111064;1203;73778;-22
2021/09/13 02:06:13;;;;;;;32.60;14.80;;;;;;;10.82;75.10;98677.42;111144;1203;63594;-22
2021/09/13 02:08:42;;;;;;;25.70;13.60;;;;;;;11.32;74.89;98678.06;111077;1203;60870;-23
2021/09/13 02:11:11;;;;;;;28.10;16.70;;;;;;;11.86;72.94;98678.92;111152;1203;73041;-22
2021/09/13 02:13:41;;;;;;;42.20;21.10;;;;;;;11.89;72.82;98682.07;111155;1203;72933;-24
2021/09/13 02:16:09;;;;;;;40.40;21.20;;;;;;;11.68;73.95;98673.61;111189;1203;72964;-23
2021/09/13 02:18:39;;;;;;;36.30;21.00;;;;;;;11.34;75.15;98674.20;111135;1203;60762;-22
2021/09/13 02:21:28;;;;;;;30.30;17.90;;;;;;;10.98;74.63;98677.29;111130;1202;62762;-22
2021/09/13 02:23:57;;;;;;;32.70;14.20;;;;;;;10.76;75.02;98677.73;111123;1195;74193;-22
2021/09/13 02:26:25;;;;;;;27.80;13.80;;;;;;;11.16;74.92;98670.76;111151;1203;75494;-22
2021/09/13 02:28:54;;;;;;;28.40;14.70;;;;;;;11.67;72.82;98667.21;111140;1203;72732;-22
2021/09/13 02:31:23;;;;;;;30.00;14.30;;;;;;;11.67;72.12;98669.17;111059;1202;60905;-23
2021/09/13 02:33:51;;;;;;;30.30;16.20;;;;;;;11.44;72.44;98666.50;111176;1203;60845;-22
2021/09/13 02:36:27;;;;;;;33.40;18.50;;;;;;;11.13;73.13;98664.45;111008;1203;74926;-22
2021/09/13 02:38:55;;;;;;;35.70;20.00;;;;;;;10.84;73.90;98670.48;111181;1202;75597;-22
2021/09/13 02:41:25;;;;;;;44.30;21.40;;;;;;;10.58;74.59;98671.91;111092;1203;74375;-22
2021/09/13 02:43:53;;;;;;;29.80;13.70;;;;;;;10.39;75.44;98674.41;111098;1202;62279;-22
2021/09/13 02:46:22;;;;;;;24.10;13.10;;;;;;;10.80;74.40;98673.30;111130;1202;61392;-22
2021/09/13 02:48:52;;;;;;;36.00;18.10;;;;;;;11.30;72.48;98669.32;111148;1202;74518;-22
2021/09/13 02:51:22;;;;;;;28.70;15.10;;;;;;;11.34;72.11;98668.33;111121;1203;73271;-21
2021/09/13 02:53:50;;;;;;;36.50;20.20;;;;;;;11.09;71.84;98668.79;111068;1197;73129;-22
2021/09/13 02:56:18;;;;;;;38.60;21.00;;;;;;;10.82;73.94;98666.31;111137;1203;60870;-22
2021/09/13 02:58:46;;;;;;;36.60;17.90;;;;;;;10.57;73.98;98665.35;111160;1202;60810;-22
2021/09/13 03:01:15;;;;;;;22.20;11.80;;;;;;;10.36;74.96;98671.36;111183;1202;74157;-22
2021/09/13 03:03:44;;;;;;;36.40;20.70;;;;;;;10.65;75.04;98678.73;111197;1203;75363;-22
2021/09/13 03:06:13;;;;;;;56.30;24.10;;;;;;;11.11;74.72;98672.95;111159;1203;74285;-22
2021/09/13 03:08:43;;;;;;;47.00;23.20;;;;;;;11.12;74.31;98671.83;111174;1203;61384;-22
2021/09/13 03:11:11;;;;;;;41.80;22.40;;;;;;;10.94;75.15;98676.58;111111;1203;61424;-22
2021/09/13 03:13:40;;;;;;;38.50;20.70;;;;;;;10.72;75.55;98676.59;111178;1203;74137;-22
2021/09/13 03:16:09;;;;;;;40.50;22.30;;;;;;;10.46;75.67;98674.27;111037;1203;75426;-22
2021/09/13 03:18:40;;;;;;;31.70;17.70;;;;;;;10.30;75.94;98671.15;111149;1202;73406;-22
2021/09/13 03:21:09;;;;;;;38.50;20.40;;;;;;;10.77;76.04;98675.95;110989;1197;60918;-22
2021/09/13 03:23:37;;;;;;;47.90;24.10;;;;;;;11.35;74.77;98672.78;111126;1195;60858;-22
2021/09/13 03:26:06;;;;;;;41.50;22.10;;;;;;;11.40;73.55;98678.34;111172;1202;74177;-22
2021/09/13 03:28:37;;;;;;;50.10;22.70;;;;;;;11.15;73.85;98682.52;111048;1197;75629;-22
2021/09/13 03:31:06;;;;;;;37.20;20.50;;;;;;;10.81;75.50;98681.30;111089;1202;73592;-22
2021/09/13 03:33:35;;;;;;;44.00;22.50;;;;;;;10.53;75.12;98683.95;111142;1202;61187;-22
2021/09/13 03:36:04;;;;;;;41.00;18.70;;;;;;;10.29;76.73;98680.58;111111;1203;61593;-22
2021/09/13 03:38:33;;;;;;;37.20;21.20;;;;;;;10.69;77.32;98678.89;111084;1202;74592;-22
2021/09/13 03:41:01;;;;;;;41.40;22.50;;;;;;;11.22;75.74;98672.52;111156;1202;73940;-22
2021/09/13 03:43:30;;;;;;;40.00;22.80;;;;;;;11.33;74.61;98676.54;111181;1202;74086;-22
2021/09/13 03:45:59;;;;;;;42.10;22.20;;;;;;;11.19;74.63;98673.83;111068;1196;61705;-22
2021/09/13 03:48:32;;;;;;;41.60;24.40;;;;;;;10.98;74.90;98671.36;111065;1203;60864;-22
2021/09/13 03:51:00;;;;;;;53.30;25.80;;;;;;;10.73;75.37;98671.23;111032;1197;74178;-22
2021/09/13 03:53:29;;;;;;;31.90;17.50;;;;;;;10.54;75.92;98675.89;111184;1203;76806;-22
2021/09/13 03:55:58;;;;;;;33.50;18.10;;;;;;;10.94;74.80;98677.19;110997;1202;73803;-22
2021/09/13 03:58:26;;;;;;;36.90;21.00;;;;;;;11.41;73.13;98675.87;110993;1202;60929;-22
2021/09/13 04:00:54;;;;;;;39.50;20.80;;;;;;;11.46;73.60;98673.66;111080;1203;61518;-22
2021/09/13 04:03:32;;;;;;;33.10;19.00;;;;;;;11.27;72.75;98676.62;111152;1202;73091;-22
2021/09/13 04:06:01;;;;;;;40.00;22.40;;;;;;;10.97;74.18;98677.16;111064;1203;74787;-22
2021/09/13 04:14:37;;;;;;;34.80;19.00;;;;;;;11.29;75.34;98682.65;111109;1203;60851;-22
2021/09/13 04:17:25;;;;;;;38.60;20.70;;;;;;;11.79;73.24;98681.92;111171;1202;75129;-22
2021/09/13 04:20:28;;;;;;;39.00;19.00;;;;;;;11.70;73.45;98683.19;110926;1206;74672;-22
2021/09/13 04:23:20;;;;;;;36.90;19.30;;;;;;;11.52;73.17;98685.77;110898;1202;72971;-22
2021/09/13 04:26:15;;;;;;;34.80;18.70;;;;;;;11.33;73.88;98690.50;111053;1204;60878;-22
2021/09/13 04:29:02;;;;;;;35.20;21.30;;;;;;;11.17;74.92;98689.66;111107;1202;60848;-22
2021/09/13 04:31:51;;;;;;;34.40;16.50;;;;;;;11.16;75.04;98694.27;111022;1202;74299;-21
2021/09/13 04:34:55;;;;;;;29.40;15.50;;;;;;;12.22;73.09;98692.24;110665;1207;75397;-22
2021/09/13 04:37:43;;;;;;;35.90;19.70;;;;;;;12.86;71.10;98687.30;110854;1203;74076;-22
2021/09/13 04:40:38;;;;;;;34.10;17.30;;;;;;;12.77;71.67;98692.35;111033;1202;60849;-22
2021/09/13 04:43:24;;;;;;;36.20;21.10;;;;;;;12.67;72.02;98691.17;111109;1202;60944;-22
2021/09/13 04:46:13;;;;;;;39.30;23.70;;;;;;;12.57;72.21;98691.11;111138;1202;75055;-22
2021/09/13 04:49:14;;;;;;;41.60;24.90;;;;;;;12.52;72.49;98690.00;110956;1202;75532;-22
2021/09/13 04:52:03;;;;;;;35.20;16.40;;;;;;;12.60;72.70;98689.08;111046;1202;73057;-22
2021/09/13 04:54:40;;;;;;;28.70;17.30;;;;;;;13.35;71.73;98684.84;111140;1202;60887;-22
2021/09/13 04:57:08;;;;;;;35.90;20.40;;;;;;;13.90;69.96;98678.41;111192;1202;61805;-23
2021/09/13 04:59:37;;;;;;;31.50;18.80;;;;;;;14.02;69.52;98682.95;111195;1202;75234;-22
2021/09/13 05:02:06;;;;;;;31.60;19.00;;;;;;;13.92;70.17;98684.67;111181;1202;74516;-22
2021/09/13 05:04:35;;;;;;;34.20;20.60;;;;;;;13.84;70.88;98684.36;111065;1203;71209;-24
2021/09/13 05:07:03;;;;;;;32.10;20.20;;;;;;;13.83;70.51;98685.70;111062;1196;60929;-21
2021/09/13 05:09:33;;;;;;;35.50;21.10;;;;;;;13.79;70.76;98685.19;111160;1202;60845;-22
2021/09/13 05:12:03;;;;;;;29.50;14.40;;;;;;;13.79;71.75;98685.52;111179;1203;74122;-22
2021/09/13 05:14:32;;;;;;;28.70;15.10;;;;;;;14.41;71.65;98687.68;111105;1196;74259;-22
2021/09/13 05:17:01;;;;;;;29.10;17.30;;;;;;;15.15;69.99;98691.42;111055;1203;73882;-22
2021/09/13 05:19:30;;;;;;;29.70;16.60;;;;;;;15.46;68.53;98688.95;111166;1202;61503;-23
2021/09/13 05:21:58;;;;;;;31.60;19.10;;;;;;;15.43;68.34;98685.26;111175;1202;60964;-24
2021/09/13 05:24:27;;;;;;;32.30;19.90;;;;;;;15.37;68.90;98688.94;111063;1197;75184;-22
2021/09/13 05:26:59;;;;;;;45.90;19.50;;;;;;;15.31;69.22;98684.08;111052;1203;75730;-23
2021/09/13 05:29:28;;;;;;;32.20;17.60;;;;;;;15.21;70.15;98688.55;111152;1202;72948;-23
2021/09/13 05:31:56;;;;;;;29.70;17.90;;;;;;;15.18;70.64;98688.26;111045;1202;61414;-23
2021/09/13 05:34:24;;;;;;;22.90;14.50;;;;;;;15.28;71.25;98684.29;111144;1202;60785;-23
2021/09/13 05:36:53;;;;;;;25.40;16.10;;;;;;;15.98;70.24;98681.08;111025;1197;75064;-23
2021/09/13 05:39:22;;;;;;;33.90;17.40;;;;;;;16.73;67.91;98677.48;111215;1202;74342;-23
2021/09/13 05:41:54;;;;;;;25.70;16.30;;;;;;;16.98;67.03;98677.65;111032;1202;71904;-21
2021/09/13 05:44:24;;;;;;;48.60;19.10;;;;;;;17.00;66.98;98678.77;111137;1202;60838;-22
2021/09/13 05:46:56;;;;;;;28.30;18.90;;;;;;;16.93;67.54;98683.80;111177;1202;60887;-23
2021/09/13 05:49:25;;;;;;;28.90;18.00;;;;;;;16.74;68.34;98684.07;111041;1202;74125;-21
2021/09/13 05:51:54;;;;;;;30.70;19.30;;;;;;;16.54;69.71;98683.01;111188;1202;76044;-23
2021/09/13 05:54:46;;;;;;;31.00;18.30;;;;;;;16.34;69.82;98689.87;111007;1196;73088;-23
2021/09/13 05:57:16;;;;;;;26.40;16.00;;;;;;;16.24;70.46;98686.89;111102;1203;62076;-23
2021/09/13 05:59:46;;;;;;;23.90;15.70;;;;;;;16.75;69.82;98689.25;111170;1202;60887;-24
2021/09/13 06:02:16;;;;;;;28.00;16.30;;;;;;;17.32;68.25;98692.98;111136;1198;73787;-22
2021/09/13 06:04:55;;;;;;;24.50;15.90;;;;;;;17.43;68.45;98694.59;111132;1202;74552;-22
2021/09/13 06:07:30;;;;;;;32.20;19.20;;;;;;;17.22;68.88;98691.92;111120;1202;74128;-21
2021/09/13 06:10:01;;;;;;;29.50;17.90;;;;;;;17.01;70.39;98697.42;111087;1202;60935;-24
2021/09/13 06:12:33;;;;;;;29.10;18.60;;;;;;;16.86;70.79;98693.45;111157;1202;63434;-21
2021/09/13 06:15:04;;;;;;;36.00;18.60;;;;;;;16.76;71.42;98694.71;111057;1202;74451;-23
2021/09/13 06:17:56;;;;;;;27.90;16.70;;;;;;;16.76;71.51;98699.64;111047;1202;76279;-23
2021/09/13 06:20:26;;;;;;;32.70;17.40;;;;;;;17.49;70.55;98703.73;111141;1202;73862;-24
2021/09/13 06:22:57;;;;;;;25.30;15.70;;;;;;;18.02;69.05;98701.60;111084;1203;60842;-22
2021/09/13 06:25:32;;;;;;;27.80;17.80;;;;;;;18.15;68.60;98702.42;111007;1203;60941;-22
2021/09/13 06:28:01;;;;;;;27.40;18.10;;;;;;;18.10;69.00;98702.16;111185;1202;75077;-22
2021/09/13 06:30:43;;;;;;;31.80;19.40;;;;;;;18.00;69.55;98700.80;111197;1203;75569;-22
2021/09/13 06:33:12;;;;;;;32.40;19.80;;;;;;;17.89;70.32;98704.85;111090;1202;73995;-22
2021/09/13 06:35:40;;;;;;;32.10;20.80;;;;;;;17.76;70.46;98705.74;111141;1202;61660;-22
2021/09/13 06:38:14;;;;;;;51.40;17.90;;;;;;;17.73;71.50;98702.38;111145;1202;60881;-21
2021/09/13 06:40:43;;;;;;;72.50;19.20;;;;;;;18.27;69.98;98706.06;111123;1202;74991;-21
2021/09/13 06:43:15;;;;;;;30.40;16.80;;;;;;;18.72;68.05;98705.69;111070;1202;75194;-21
2021/09/13 06:45:57;;;;;;;28.40;17.70;;;;;;;18.79;67.95;98708.25;111082;1202;72401;-22
2021/09/13 06:48:27;;;;;;;24.00;15.50;;;;;;;18.70;68.82;98708.65;111154;1202;60841;-21
2021/09/13 06:50:56;;;;;;;30.30;19.20;;;;;;;18.67;68.99;98715.02;111147;1203;60865;-21
2021/09/13 06:53:24;;;;;;;29.40;17.40;;;;;;;18.55;69.03;98716.02;111083;1204;74198;-21
2021/09/13 06:55:53;;;;;;;26.80;18.40;;;;;;;18.58;69.01;98713.94;111033;1202;74392;-22
2021/09/13 06:58:21;;;;;;;20.70;12.50;;;;;;;18.69;70.19;98717.59;111196;1201;73815;-22
2021/09/13 07:00:52;;;;;;;23.80;13.70;;;;;;;19.34;68.93;98722.95;111139;1202;61710;-22
2021/09/13 07:03:21;;;;;;;24.80;16.30;;;;;;;19.82;65.84;98719.73;111173;1196;60849;-23
2021/09/13 07:05:49;;;;;;;24.60;15.20;;;;;;;20.03;64.89;98715.91;111263;1201;75298;-21
2021/09/13 07:08:18;;;;;;;24.60;16.40;;;;;;;20.10;65.68;98717.61;111223;1201;74564;-21
2021/09/13 07:10:47;;;;;;;27.30;16.10;;;;;;;20.03;66.33;98721.11;111200;1200;74124;-21
2021/09/13 07:13:16;;;;;;;23.60;15.20;;;;;;;20.01;66.52;98722.73;111192;1201;60898;-22
2021/09/13 07:15:46;;;;;;;28.40;16.70;;;;;;;20.11;66.72;98724.77;111238;1201;61998;-22
2021/09/13 07:18:15;;;;;;;27.50;17.70;;;;;;;20.04;67.29;98727.88;111293;1201;75116;-22
2021/09/13 07:20:45;;;;;;;20.90;15.20;;;;;;;19.98;67.77;98728.64;111261;1201;75944;-21
2021/09/13 07:23:14;;;;;;;20.00;12.30;;;;;;;19.98;67.91;98727.90;111331;1201;73299;-22
2021/09/13 07:25:42;;;;;;;18.70;12.90;;;;;;;20.59;66.86;98725.55;111290;1201;60846;-22
2021/09/13 07:28:11;;;;;;;17.00;11.50;;;;;;;21.18;65.09;98723.67;111174;1202;60946;-23
2021/09/13 07:30:40;;;;;;;24.40;13.10;;;;;;;21.35;64.81;98725.35;111177;1202;75297;-22
2021/09/13 07:33:08;;;;;;;17.70;12.90;;;;;;;21.15;64.82;98722.41;111255;1201;75525;-22
2021/09/13 07:35:37;;;;;;;19.40;13.50;;;;;;;20.92;65.32;98725.55;111288;1201;74121;-22
2021/09/13 07:38:05;;;;;;;14.90;12.70;;;;;;;20.81;66.43;98730.13;111229;1201;61407;-22
2021/09/13 07:40:33;;;;;;;65.70;17.10;;;;;;;20.76;66.48;98731.96;111226;1202;60841;-22
2021/09/13 07:43:21;;;;;;;23.50;15.50;;;;;;;20.75;66.83;98730.04;111194;1201;75121;-22
2021/09/13 07:45:50;;;;;;;24.10;15.20;;;;;;;20.64;66.38;98732.45;111229;1201;75013;-22
2021/09/13 07:48:19;;;;;;;22.80;16.50;;;;;;;20.53;66.94;98732.73;111208;1201;73897;-22
2021/09/13 07:50:49;;;;;;;19.00;15.20;;;;;;;20.56;66.33;98727.58;111208;1201;60855;-22
2021/09/13 07:53:17;;;;;;;16.30;9.90;;;;;;;20.62;66.42;98729.88;111307;1201;61389;-22
2021/09/13 07:55:45;;;;;;;17.10;11.10;;;;;;;21.41;65.09;98726.69;111279;1201;74251;-22
2021/09/13 07:58:14;;;;;;;15.90;11.40;;;;;;;22.21;62.88;98732.02;111211;1202;74536;-22
2021/09/13 08:00:43;;;;;;;21.20;11.90;;;;;;;22.42;61.39;98736.48;111298;1201;73057;-22
2021/09/13 08:03:12;;;;;;;18.00;13.70;;;;;;;22.43;60.64;98733.16;111142;1202;60931;-22
2021/09/13 08:05:41;;;;;;;21.60;13.50;;;;;;;22.38;61.29;98732.80;111163;1200;61394;-22
2021/09/13 08:08:12;;;;;;;21.60;12.90;;;;;;;22.20;61.57;98733.26;111228;1201;73924;-22
2021/09/13 08:10:41;;;;;;;19.20;13.60;;;;;;;22.07;62.44;98731.10;111297;1201;75547;-22
2021/09/13 08:13:09;;;;;;;16.70;13.10;;;;;;;22.05;62.23;98732.66;111261;1201;72109;-22
2021/09/13 08:15:38;;;;;;;17.40;12.20;;;;;;;22.18;62.20;98730.20;111273;1201;61662;-22
2021/09/13 08:18:18;;;;;;;18.90;12.10;;;;;;;22.27;61.82;98726.06;111271;1200;60894;-22
2021/09/13 08:20:48;;;;;;;75.90;13.30;;;;;;;22.28;62.20;98726.63;111259;1202;72463;-22
2021/09/13 08:23:16;;;;;;;12.40;9.40;;;;;;;22.28;62.19;98725.92;111256;1201;75380;-22
2021/09/13 08:25:46;;;;;;;281.30;26.30;;;;;;;22.42;61.84;98721.52;111290;1202;73958;-21
2021/09/13 08:28:22;;;;;;;11.80;9.00;;;;;;;22.50;60.52;98726.41;111223;1202;61282;-22
2021/09/13 08:30:51;;;;;;;10.60;8.60;;;;;;;22.62;61.24;98725.65;111270;1201;60922;-22
2021/09/13 08:33:19;;;;;;;12.40;10.00;;;;;;;22.62;60.88;98725.36;111247;1201;75196;-22
2021/09/13 08:35:48;;;;;;;14.40;9.70;;;;;;;22.55;60.84;98726.09;111233;1202;75603;-22
2021/09/13 08:38:17;;;;;;;12.00;9.40;;;;;;;22.54;60.79;98724.10;111322;1201;73007;-22
2021/09/13 08:40:46;;;;;;;13.00;9.80;;;;;;;22.64;61.73;98731.56;111285;1202;61331;-22
2021/09/13 08:43:14;;;;;;;12.60;9.50;;;;;;;22.73;61.61;98730.18;111331;1201;61655;-22
2021/09/13 08:48:19;;;;;;;12.40;9.60;;;;;;;22.89;60.72;98728.54;111176;1202;74177;-22
2021/09/13 08:53:19;;;;;;;16.70;10.40;;;;;;;23.18;60.42;98730.56;111217;1201;60864;-22
2021/09/13 08:55:50;;;;;;;20.60;10.40;;;;;;;23.10;59.06;98735.39;111151;1201;61408;-23
2021/09/13 08:58:22;;;;;;;11.70;9.30;;;;;;;23.20;59.34;98732.23;111285;1202;72503;-23
2021/09/13 09:00:51;;;;;;;92.10;13.30;;;;;;;23.49;57.93;98729.89;111154;1202;76844;-23
2021/09/13 09:03:20;;;;;;;11.00;8.30;;;;;;;23.63;57.77;98727.64;111309;1201;74251;-22
2021/09/13 09:05:49;;;;;;;10.30;7.70;;;;;;;23.77;57.22;98727.77;111296;1202;61541;-23
2021/09/13 09:08:29;;;;;;;10.80;6.20;;;;;;;23.87;55.94;98722.92;111163;1201;60983;-22
2021/09/13 09:11:01;;;;;;;8.40;6.80;;;;;;;24.08;55.41;98716.35;111304;1201;75630;-23
2021/09/13 09:13:43;;;;;;;11.10;7.00;;;;;;;24.21;54.48;98712.98;111166;1202;76120;-23
2021/09/13 09:16:15;;;;;;;13.30;7.80;;;;;;;24.13;54.66;98708.89;111172;1202;72834;-23
2021/09/13 09:18:45;;;;;;;13.40;8.00;;;;;;;24.25;54.90;98716.89;111126;1199;60862;-23
2021/09/13 09:21:30;;;;;;;12.90;7.40;;;;;;;24.47;55.08;98714.66;111135;1202;61357;-21
2021/09/13 09:24:04;;;;;;;10.20;6.50;;;;;;;24.51;52.88;98712.48;111185;1202;73777;-22
2021/09/13 09:26:32;;;;;;;74.10;11.30;;;;;;;24.61;52.99;98709.57;111185;1202;75806;-22
2021/09/13 09:29:01;;;;;;;10.50;6.60;;;;;;;24.96;52.31;98710.37;111218;1202;74011;-22
2021/09/13 09:31:47;;;;;;;9.30;6.50;;;;;;;25.45;51.19;98708.64;111189;1202;60887;-22
2021/09/13 09:34:17;;;;;;;10.20;6.30;;;;;;;25.80;50.96;98704.36;111138;1200;61979;-23
2021/09/13 09:36:58;;;;;;;8.10;5.40;;;;;;;25.87;49.19;98698.39;111174;1202;75269;-24
2021/09/13 09:39:45;;;;;;;7.80;5.70;;;;;;;25.72;48.48;98689.44;111246;1202;75386;-22
2021/09/13 09:42:31;;;;;;;9.30;6.50;;;;;;;25.61;50.55;98699.53;111152;1203;72376;-23
2021/09/13 09:45:01;;;;;;;7.30;5.80;;;;;;;25.33;49.29;98700.53;111177;1195;60934;-23
2021/09/13 09:47:29;;;;;;;6.80;4.70;;;;;;;25.05;49.85;98697.82;111177;1195;61191;-22
2021/09/13 09:50:02;;;;;;;6.70;4.80;;;;;;;24.46;50.18;98697.52;111302;1202;75079;-22
2021/09/13 09:52:35;;;;;;;8.50;5.20;;;;;;;23.95;51.36;98698.22;111280;1201;75611;-22
2021/09/13 09:55:11;;;;;;;7.30;4.60;;;;;;;24.07;52.31;98693.89;111190;1200;72958;-23
2021/09/13 09:57:40;;;;;;;9.30;5.20;;;;;;;24.19;52.34;98692.73;111162;1202;60852;-22
2021/09/13 10:00:25;;;;;;;6.30;4.80;;;;;;;24.25;51.04;98691.57;111217;1202;60814;-22
2021/09/13 10:02:55;;;;;;;6.90;5.30;;;;;;;24.70;50.85;98689.59;111160;1200;75490;-22
2021/09/13 10:05:28;;;;;;;7.90;6.10;;;;;;;25.08;50.98;98684.80;111132;1203;74616;-22
2021/09/13 10:07:56;;;;;;;6.70;5.90;;;;;;;25.18;50.28;98687.70;111147;1203;71717;-22
2021/09/13 10:10:29;;;;;;;8.10;5.60;;;;;;;24.79;50.38;98690.99;111335;1201;60874;-22
2021/09/13 10:12:59;;;;;;;6.30;5.50;;;;;;;24.46;51.02;98698.46;111185;1202;61408;-22
2021/09/13 10:15:28;;;;;;;7.90;5.10;;;;;;;24.07;52.19;98698.69;111176;1202;72550;-22
2021/09/13 10:18:00;;;;;;;7.50;5.00;;;;;;;23.95;52.36;98705.00;111281;1201;76970;-22
2021/09/13 10:20:28;;;;;;;11.40;5.50;;;;;;;23.65;53.10;98700.19;111208;1202;72933;-22
2021/09/13 10:22:57;;;;;;;6.80;4.70;;;;;;;23.21;53.04;98696.22;111268;1202;61630;-22
2021/09/13 10:25:30;;;;;;;111.20;10.40;;;;;;;23.04;54.17;98702.55;111320;1202;60945;-22
2021/09/13 10:28:06;;;;;;;7.30;4.60;;;;;;;22.77;54.93;98700.27;111151;1202;75027;-22
2021/09/13 10:31:00;;;;;;;5.80;4.50;;;;;;;22.66;55.56;98697.10;111158;1195;75580;-23
2021/09/13 10:33:59;;;;;;;4.90;3.70;;;;;;;23.39;53.62;98694.08;111325;1202;71526;-22
2021/09/13 10:36:59;;;;;;;8.40;4.60;;;;;;;24.36;51.55;98686.10;111124;1204;60948;-22
2021/09/13 10:39:57;;;;;;;6.00;4.90;;;;;;;25.15;49.41;98678.95;111302;1195;60781;-22
2021/09/13 10:42:32;;;;;;;4.40;3.50;;;;;;;25.35;48.46;98678.72;111194;1204;75054;-22
2021/09/13 10:45:10;;;;;;;5.10;4.00;;;;;;;25.24;46.65;98674.08;111194;1202;75125;-23
2021/09/13 10:48:02;;;;;;;23.30;4.50;;;;;;;25.62;46.54;98678.22;111291;1202;72938;-21
2021/09/13 10:50:41;;;;;;;7.30;4.30;;;;;;;25.84;46.16;98668.72;111261;1202;60845;-22
2021/09/13 10:53:19;;;;;;;4.60;4.10;;;;;;;25.99;46.62;98666.05;111170;1202;60842;-21
2021/09/13 10:55:56;;;;;;;4.10;3.70;;;;;;;26.06;44.51;98659.27;111216;1202;75199;-22
2021/09/13 10:58:33;;;;;;;4.50;3.60;;;;;;;25.23;45.27;98666.68;111184;1202;75551;-22
2021/09/13 11:01:03;;;;;;;5.00;4.40;;;;;;;25.16;46.20;98666.72;111157;1200;73878;-21
2021/09/13 11:03:36;;;;;;;4.50;3.90;;;;;;;25.02;46.50;98663.66;111155;1203;61445;-22
2021/09/13 11:08:44;;;;;;;6.30;4.60;;;;;;;25.15;47.84;98665.80;111193;1201;75076;-22
2021/09/13 11:11:24;;;;;;;6.10;4.70;;;;;;;24.96;48.65;98662.52;111128;1200;75380;-22
2021/09/13 11:14:06;;;;;;;9.00;4.90;;;;;;;24.30;49.25;98663.83;111074;1204;74011;-22
2021/09/13 11:16:56;;;;;;;7.60;5.20;;;;;;;24.08;50.76;98668.80;111083;1200;61685;-23
2021/09/13 11:19:28;;;;;;;6.20;4.50;;;;;;;24.31;48.94;98664.43;111165;1203;60913;-23
2021/09/13 11:22:05;;;;;;;5.30;4.60;;;;;;;24.31;49.15;98660.02;111192;1201;75468;-23
2021/09/13 11:24:39;;;;;;;8.00;5.30;;;;;;;24.35;49.43;98659.27;111201;1202;75395;-24
2021/09/13 11:27:10;;;;;;;4.90;4.20;;;;;;;24.45;48.43;98654.50;111159;1203;74174;-23
2021/09/13 11:29:43;;;;;;;5.20;3.80;;;;;;;24.22;48.44;98652.56;111159;1202;60816;-23
2021/09/13 11:32:18;;;;;;;;;;;;;;;24.55;48.63;98647.18;111179;1202;61856;-22
2021/09/13 11:34:50;;;;;;;5.90;4.60;;;;;;;24.71;47.24;98638.55;111175;1202;75368;-23
2021/09/13 11:37:32;;;;;;;5.40;3.80;;;;;;;24.87;48.95;98637.06;111168;1202;75387;-23
2021/09/13 11:40:24;;;;;;;5.60;3.80;;;;;;;24.71;47.15;98624.59;111171;1202;72650;-23
2021/09/13 11:42:54;;;;;;;10.30;5.00;;;;;;;24.58;48.56;98626.56;111164;1201;61458;-23
2021/09/13 11:45:23;;;;;;;5.00;4.10;;;;;;;24.83;49.81;98624.80;111212;1201;60781;-23
2021/09/13 11:48:03;;;;;;;5.90;4.30;;;;;;;25.18;48.12;98622.33;111135;1202;74124;-23
2021/09/13 11:50:35;;;;;;;7.40;4.30;;;;;;;25.36;47.25;98619.73;111148;1203;75553;-23
2021/09/13 11:53:12;;;;;;;4.80;4.20;;;;;;;25.17;46.33;98613.89;111145;1202;73335;-21
2021/09/13 11:55:40;;;;;;;4.40;3.40;;;;;;;25.15;47.22;98614.00;111160;1200;61730;-21